sensor_id;sensor_type;location;lat;lon;timestamp;P1;durP1;ratioP1;P2;durP2;ratioP2
41623;SDS011;27319;50.306;18.926;2023-05-07T00:01:19;29.92;;;19.45;;
41623;SDS011;27319;50.306;18.926;2023-05-07T00:05:20;19.05;;;14.40;;
41623;SDS011;27319;50.306;18.926;2023-05-07T00:09:21;23.42;;;15.38;;
41623;SDS011;27319;50.306;18.926;2023-05-07T00:12:21;23.05;;;15.68;;
41623;SDS011;27319;50.306;18.926;2023-05-07T00:16:22;19.60;;;14.15;;
41623;SDS011;27319;50.306;18.926;2023-05-07T00:20:23;21.75;;;12.82;;
41623;SDS011;27319;50.306;18.926;2023-05-07T00:24:24;20.45;;;13.65;;
41623;SDS011;27319;50.306;18.926;2023-05-07T00:28:24;23.88;;;13.75;;
41623;SDS011;27319;50.306;18.926;2023-05-07T00:32:25;18.40;;;11.98;;
41623;SDS011;27319;50.306;18.926;2023-05-07T00:35:26;26.70;;;13.52;;
41623;SDS011;27319;50.306;18.926;2023-05-07T00:39:27;23.33;;;12.10;;
41623;SDS011;27319;50.306;18.926;2023-05-07T00:43:27;19.83;;;10.73;;
41623;SDS011;27319;50.306;18.926;2023-05-07T00:47:28;17.92;;;10.80;;
41623;SDS011;27319;50.306;18.926;2023-05-07T00:51:29;19.10;;;11.27;;
41623;SDS011;27319;50.306;18.926;2023-05-07T00:54:30;16.60;;;10.73;;
41623;SDS011;27319;50.306;18.926;2023-05-07T00:58:31;17.17;;;9.95;;
41623;SDS011;27319;50.306;18.926;2023-05-07T01:02:31;16.98;;;10.65;;
41623;SDS011;27319;50.306;18.926;2023-05-07T01:06:32;12.75;;;8.88;;
41623;SDS011;27319;50.306;18.926;2023-05-07T01:09:50;14.20;;;8.85;;
41623;SDS011;27319;50.306;18.926;2023-05-07T01:13:39;12.07;;;8.10;;
41623;SDS011;27319;50.306;18.926;2023-05-07T01:17:40;11.02;;;8.70;;
41623;SDS011;27319;50.306;18.926;2023-05-07T01:21:26;12.88;;;7.95;;
41623;SDS011;27319;50.306;18.926;2023-05-07T01:24:26;10.75;;;7.70;;
41623;SDS011;27319;50.306;18.926;2023-05-07T01:27:28;12.52;;;8.10;;
41623;SDS011;27319;50.306;18.926;2023-05-07T01:30:29;9.68;;;7.07;;
41623;SDS011;27319;50.306;18.926;2023-05-07T01:34:30;9.85;;;6.50;;
41623;SDS011;27319;50.306;18.926;2023-05-07T01:38:30;10.30;;;7.45;;
41623;SDS011;27319;50.306;18.926;2023-05-07T01:41:31;12.15;;;7.30;;
41623;SDS011;27319;50.306;18.926;2023-05-07T01:45:32;10.95;;;7.55;;
41623;SDS011;27319;50.306;18.926;2023-05-07T01:49:33;9.90;;;6.82;;
41623;SDS011;27319;50.306;18.926;2023-05-07T01:53:36;13.90;;;7.07;;
41623;SDS011;27319;50.306;18.926;2023-05-07T01:57:37;8.15;;;6.35;;
41623;SDS011;27319;50.306;18.926;2023-05-07T02:00:39;7.43;;;5.43;;
41623;SDS011;27319;50.306;18.926;2023-05-07T02:03:41;8.60;;;5.93;;
41623;SDS011;27319;50.306;18.926;2023-05-07T02:07:42;7.30;;;5.00;;
41623;SDS011;27319;50.306;18.926;2023-05-07T02:10:43;8.88;;;6.50;;
41623;SDS011;27319;50.306;18.926;2023-05-07T02:13:44;14.55;;;6.80;;
41623;SDS011;27319;50.306;18.926;2023-05-07T02:17:57;7.60;;;5.63;;
41623;SDS011;27319;50.306;18.926;2023-05-07T02:21:58;8.43;;;5.15;;
41623;SDS011;27319;50.306;18.926;2023-05-07T02:25:58;9.52;;;5.60;;
41623;SDS011;27319;50.306;18.926;2023-05-07T02:28:59;6.60;;;4.85;;
41623;SDS011;27319;50.306;18.926;2023-05-07T02:32:00;7.85;;;5.20;;
41623;SDS011;27319;50.306;18.926;2023-05-07T02:35:01;7.47;;;4.82;;
41623;SDS011;27319;50.306;18.926;2023-05-07T02:38:02;5.85;;;4.38;;
41623;SDS011;27319;50.306;18.926;2023-05-07T02:41:03;5.85;;;3.45;;
41623;SDS011;27319;50.306;18.926;2023-05-07T02:44:04;5.00;;;3.30;;
41623;SDS011;27319;50.306;18.926;2023-05-07T02:47:04;6.45;;;3.25;;
41623;SDS011;27319;50.306;18.926;2023-05-07T02:50:08;4.45;;;3.22;;
41623;SDS011;27319;50.306;18.926;2023-05-07T02:53:09;5.25;;;2.63;;
41623;SDS011;27319;50.306;18.926;2023-05-07T02:56:10;5.30;;;3.33;;
41623;SDS011;27319;50.306;18.926;2023-05-07T02:59:11;5.03;;;3.22;;
41623;SDS011;27319;50.306;18.926;2023-05-07T03:02:12;7.32;;;3.72;;
41623;SDS011;27319;50.306;18.926;2023-05-07T03:05:13;4.03;;;2.45;;
41623;SDS011;27319;50.306;18.926;2023-05-07T03:08:14;5.45;;;2.40;;
41623;SDS011;27319;50.306;18.926;2023-05-07T03:11:15;3.50;;;2.33;;
41623;SDS011;27319;50.306;18.926;2023-05-07T03:14:16;4.00;;;2.70;;
41623;SDS011;27319;50.306;18.926;2023-05-07T03:17:17;6.60;;;2.97;;
41623;SDS011;27319;50.306;18.926;2023-05-07T03:20:18;5.38;;;2.70;;
41623;SDS011;27319;50.306;18.926;2023-05-07T03:23:19;2.90;;;1.90;;
41623;SDS011;27319;50.306;18.926;2023-05-07T03:27:20;2.60;;;2.10;;
41623;SDS011;27319;50.306;18.926;2023-05-07T03:30:21;4.93;;;2.35;;
41623;SDS011;27319;50.306;18.926;2023-05-07T03:33:22;5.93;;;2.50;;
41623;SDS011;27319;50.306;18.926;2023-05-07T03:36:23;4.82;;;2.83;;
41623;SDS011;27319;50.306;18.926;2023-05-07T03:39:24;4.65;;;2.75;;
41623;SDS011;27319;50.306;18.926;2023-05-07T03:42:25;4.97;;;2.78;;
41623;SDS011;27319;50.306;18.926;2023-05-07T03:45:26;5.72;;;2.95;;
41623;SDS011;27319;50.306;18.926;2023-05-07T03:49:27;4.25;;;2.50;;
41623;SDS011;27319;50.306;18.926;2023-05-07T03:53:27;3.83;;;2.45;;
41623;SDS011;27319;50.306;18.926;2023-05-07T03:57:28;4.60;;;3.08;;
41623;SDS011;27319;50.306;18.926;2023-05-07T04:00:29;4.00;;;2.92;;
41623;SDS011;27319;50.306;18.926;2023-05-07T04:03:34;2.95;;;2.15;;
41623;SDS011;27319;50.306;18.926;2023-05-07T04:06:35;5.10;;;2.60;;
41623;SDS011;27319;50.306;18.926;2023-05-07T04:09:36;4.78;;;2.65;;
41623;SDS011;27319;50.306;18.926;2023-05-07T04:12:36;4.25;;;2.58;;
41623;SDS011;27319;50.306;18.926;2023-05-07T04:15:37;4.25;;;2.65;;
41623;SDS011;27319;50.306;18.926;2023-05-07T04:18:38;3.78;;;2.45;;
41623;SDS011;27319;50.306;18.926;2023-05-07T04:21:39;3.10;;;2.15;;
41623;SDS011;27319;50.306;18.926;2023-05-07T04:24:40;3.40;;;2.28;;
41623;SDS011;27319;50.306;18.926;2023-05-07T04:27:41;7.15;;;2.50;;
41623;SDS011;27319;50.306;18.926;2023-05-07T04:30:42;3.30;;;2.40;;
41623;SDS011;27319;50.306;18.926;2023-05-07T04:33:43;3.97;;;2.60;;
41623;SDS011;27319;50.306;18.926;2023-05-07T04:36:44;4.32;;;2.65;;
41623;SDS011;27319;50.306;18.926;2023-05-07T04:39:45;4.07;;;2.63;;
41623;SDS011;27319;50.306;18.926;2023-05-07T04:42:45;4.25;;;2.30;;
41623;SDS011;27319;50.306;18.926;2023-05-07T04:45:46;5.15;;;2.85;;
41623;SDS011;27319;50.306;18.926;2023-05-07T04:48:49;4.03;;;2.55;;
41623;SDS011;27319;50.306;18.926;2023-05-07T04:51:50;3.95;;;2.60;;
41623;SDS011;27319;50.306;18.926;2023-05-07T04:54:51;3.92;;;2.47;;
41623;SDS011;27319;50.306;18.926;2023-05-07T04:57:52;5.20;;;3.03;;
41623;SDS011;27319;50.306;18.926;2023-05-07T05:00:53;4.10;;;2.65;;
41623;SDS011;27319;50.306;18.926;2023-05-07T05:03:54;3.90;;;2.30;;
41623;SDS011;27319;50.306;18.926;2023-05-07T05:06:55;4.35;;;2.47;;
41623;SDS011;27319;50.306;18.926;2023-05-07T05:09:56;3.92;;;2.38;;
41623;SDS011;27319;50.306;18.926;2023-05-07T05:12:57;2.85;;;2.20;;
41623;SDS011;27319;50.306;18.926;2023-05-07T05:15:58;3.88;;;2.42;;
41623;SDS011;27319;50.306;18.926;2023-05-07T05:19:01;4.18;;;2.33;;
41623;SDS011;27319;50.306;18.926;2023-05-07T05:23:00;4.60;;;2.30;;
41623;SDS011;27319;50.306;18.926;2023-05-07T05:27:01;3.25;;;2.45;;
41623;SDS011;27319;50.306;18.926;2023-05-07T05:31:02;4.03;;;2.20;;
41623;SDS011;27319;50.306;18.926;2023-05-07T05:35:03;3.78;;;2.60;;
41623;SDS011;27319;50.306;18.926;2023-05-07T05:39:04;5.45;;;3.10;;
41623;SDS011;27319;50.306;18.926;2023-05-07T05:43:05;6.47;;;3.20;;
41623;SDS011;27319;50.306;18.926;2023-05-07T05:47:05;4.72;;;2.72;;
41623;SDS011;27319;50.306;18.926;2023-05-07T05:51:06;3.75;;;2.50;;
41623;SDS011;27319;50.306;18.926;2023-05-07T05:55:07;3.28;;;2.50;;
41623;SDS011;27319;50.306;18.926;2023-05-07T05:59:08;3.60;;;2.25;;
41623;SDS011;27319;50.306;18.926;2023-05-07T06:03:11;2.90;;;2.33;;
41623;SDS011;27319;50.306;18.926;2023-05-07T06:06:59;4.70;;;2.40;;
41623;SDS011;27319;50.306;18.926;2023-05-07T06:10:00;4.50;;;2.80;;
41623;SDS011;27319;50.306;18.926;2023-05-07T06:13:02;3.88;;;2.40;;
41623;SDS011;27319;50.306;18.926;2023-05-07T06:16:18;3.97;;;2.45;;
41623;SDS011;27319;50.306;18.926;2023-05-07T06:19:19;5.47;;;2.33;;
41623;SDS011;27319;50.306;18.926;2023-05-07T06:22:23;3.20;;;2.38;;
41623;SDS011;27319;50.306;18.926;2023-05-07T06:25:24;4.40;;;3.15;;
41623;SDS011;27319;50.306;18.926;2023-05-07T06:28:25;3.35;;;2.50;;
41623;SDS011;27319;50.306;18.926;2023-05-07T06:31:28;4.43;;;2.50;;
41623;SDS011;27319;50.306;18.926;2023-05-07T06:34:31;4.90;;;2.83;;
41623;SDS011;27319;50.306;18.926;2023-05-07T06:38:31;5.95;;;2.85;;
41623;SDS011;27319;50.306;18.926;2023-05-07T06:41:54;4.18;;;2.83;;
41623;SDS011;27319;50.306;18.926;2023-05-07T06:45:55;4.57;;;2.80;;
41623;SDS011;27319;50.306;18.926;2023-05-07T06:49:55;4.68;;;2.67;;
41623;SDS011;27319;50.306;18.926;2023-05-07T06:53:04;4.07;;;2.67;;
41623;SDS011;27319;50.306;18.926;2023-05-07T06:57:05;5.00;;;2.72;;
41623;SDS011;27319;50.306;18.926;2023-05-07T07:00:07;3.22;;;2.45;;
41623;SDS011;27319;50.306;18.926;2023-05-07T07:04:08;4.10;;;2.58;;
41623;SDS011;27319;50.306;18.926;2023-05-07T07:08:09;3.80;;;2.03;;
41623;SDS011;27319;50.306;18.926;2023-05-07T07:11:10;3.55;;;2.42;;
41623;SDS011;27319;50.306;18.926;2023-05-07T07:15:11;3.55;;;2.40;;
41623;SDS011;27319;50.306;18.926;2023-05-07T07:18:59;3.95;;;2.55;;
41623;SDS011;27319;50.306;18.926;2023-05-07T07:22:00;3.33;;;2.55;;
41623;SDS011;27319;50.306;18.926;2023-05-07T07:26:01;3.03;;;2.17;;
41623;SDS011;27319;50.306;18.926;2023-05-07T07:30:02;4.15;;;2.05;;
41623;SDS011;27319;50.306;18.926;2023-05-07T07:34:02;3.70;;;2.22;;
41623;SDS011;27319;50.306;18.926;2023-05-07T07:38:03;3.45;;;1.88;;
41623;SDS011;27319;50.306;18.926;2023-05-07T07:42:03;3.05;;;2.13;;
41623;SDS011;27319;50.306;18.926;2023-05-07T07:46:04;3.50;;;2.00;;
41623;SDS011;27319;50.306;18.926;2023-05-07T07:49:05;3.75;;;2.25;;
41623;SDS011;27319;50.306;18.926;2023-05-07T07:52:25;4.18;;;2.88;;
41623;SDS011;27319;50.306;18.926;2023-05-07T07:56:26;3.00;;;2.22;;
41623;SDS011;27319;50.306;18.926;2023-05-07T08:00:27;5.68;;;2.88;;
41623;SDS011;27319;50.306;18.926;2023-05-07T08:04:28;3.05;;;2.35;;
41623;SDS011;27319;50.306;18.926;2023-05-07T08:08:29;4.35;;;2.65;;
41623;SDS011;27319;50.306;18.926;2023-05-07T08:11:30;4.00;;;2.55;;
41623;SDS011;27319;50.306;18.926;2023-05-07T08:15:30;4.90;;;2.85;;
41623;SDS011;27319;50.306;18.926;2023-05-07T08:19:31;4.53;;;2.88;;
41623;SDS011;27319;50.306;18.926;2023-05-07T08:23:32;4.40;;;3.38;;
41623;SDS011;27319;50.306;18.926;2023-05-07T08:27:35;4.07;;;2.72;;
41623;SDS011;27319;50.306;18.926;2023-05-07T08:31:16;4.70;;;3.10;;
41623;SDS011;27319;50.306;18.926;2023-05-07T08:35:17;4.28;;;2.95;;
41623;SDS011;27319;50.306;18.926;2023-05-07T08:39:17;3.80;;;3.08;;
41623;SDS011;27319;50.306;18.926;2023-05-07T08:43:18;6.60;;;3.83;;
41623;SDS011;27319;50.306;18.926;2023-05-07T08:47:19;3.95;;;2.72;;
41623;SDS011;27319;50.306;18.926;2023-05-07T08:51:25;7.20;;;3.15;;
41623;SDS011;27319;50.306;18.926;2023-05-07T08:55:26;4.60;;;3.35;;
41623;SDS011;27319;50.306;18.926;2023-05-07T08:58:51;3.20;;;2.38;;
41623;SDS011;27319;50.306;18.926;2023-05-07T09:01:56;6.38;;;3.75;;
41623;SDS011;27319;50.306;18.926;2023-05-07T09:04:57;15.15;;;8.20;;
41623;SDS011;27319;50.306;18.926;2023-05-07T09:07:59;7.82;;;4.13;;
41623;SDS011;27319;50.306;18.926;2023-05-07T09:11:02;4.95;;;3.50;;
41623;SDS011;27319;50.306;18.926;2023-05-07T09:15:03;4.43;;;2.90;;
41623;SDS011;27319;50.306;18.926;2023-05-07T09:19:04;3.65;;;2.70;;
41623;SDS011;27319;50.306;18.926;2023-05-07T09:23:07;4.30;;;3.10;;
41623;SDS011;27319;50.306;18.926;2023-05-07T09:27:08;4.53;;;3.25;;
41623;SDS011;27319;50.306;18.926;2023-05-07T09:31:10;4.25;;;2.88;;
41623;SDS011;27319;50.306;18.926;2023-05-07T09:35:16;6.90;;;2.60;;
41623;SDS011;27319;50.306;18.926;2023-05-07T09:39:16;5.57;;;2.90;;
41623;SDS011;27319;50.306;18.926;2023-05-07T09:43:20;3.90;;;3.40;;
41623;SDS011;27319;50.306;18.926;2023-05-07T09:47:23;4.30;;;3.30;;
41623;SDS011;27319;50.306;18.926;2023-05-07T09:51:24;5.68;;;3.30;;
41623;SDS011;27319;50.306;18.926;2023-05-07T09:54:31;5.47;;;3.50;;
41623;SDS011;27319;50.306;18.926;2023-05-07T09:58:31;5.72;;;3.50;;
41623;SDS011;27319;50.306;18.926;2023-05-07T10:02:32;5.55;;;3.50;;
41623;SDS011;27319;50.306;18.926;2023-05-07T10:05:36;6.85;;;3.53;;
41623;SDS011;27319;50.306;18.926;2023-05-07T10:09:37;6.97;;;4.18;;
41623;SDS011;27319;50.306;18.926;2023-05-07T10:13:38;7.00;;;4.45;;
41623;SDS011;27319;50.306;18.926;2023-05-07T10:16:39;5.75;;;3.97;;
41623;SDS011;27319;50.306;18.926;2023-05-07T10:19:41;4.88;;;3.72;;
41623;SDS011;27319;50.306;18.926;2023-05-07T10:22:45;6.25;;;4.18;;
41623;SDS011;27319;50.306;18.926;2023-05-07T10:25:48;6.38;;;3.45;;
41623;SDS011;27319;50.306;18.926;2023-05-07T10:32:40;4.55;;;3.13;;
41623;SDS011;27319;50.306;18.926;2023-05-07T10:36:40;4.63;;;3.30;;
41623;SDS011;27319;50.306;18.926;2023-05-07T10:40:41;4.35;;;3.38;;
41623;SDS011;27319;50.306;18.926;2023-05-07T10:44:06;4.35;;;3.33;;
41623;SDS011;27319;50.306;18.926;2023-05-07T10:47:07;5.68;;;3.28;;
41623;SDS011;27319;50.306;18.926;2023-05-07T10:51:18;3.70;;;3.05;;
41623;SDS011;27319;50.306;18.926;2023-05-07T10:54:21;5.50;;;3.58;;
41623;SDS011;27319;50.306;18.926;2023-05-07T11:01:12;4.10;;;2.90;;
41623;SDS011;27319;50.306;18.926;2023-05-07T11:05:19;3.33;;;2.50;;
41623;SDS011;27319;50.306;18.926;2023-05-07T11:08:23;3.60;;;3.00;;
41623;SDS011;27319;50.306;18.926;2023-05-07T11:15:37;4.05;;;3.03;;
41623;SDS011;27319;50.306;18.926;2023-05-07T11:19:53;4.03;;;2.83;;
41623;SDS011;27319;50.306;18.926;2023-05-07T11:22:54;4.38;;;3.00;;
41623;SDS011;27319;50.306;18.926;2023-05-07T11:26:04;5.68;;;3.72;;
41623;SDS011;27319;50.306;18.926;2023-05-07T11:30:04;6.55;;;3.42;;
41623;SDS011;27319;50.306;18.926;2023-05-07T11:34:05;5.57;;;3.85;;
41623;SDS011;27319;50.306;18.926;2023-05-07T11:38:01;4.80;;;3.30;;
41623;SDS011;27319;50.306;18.926;2023-05-07T11:41:03;3.90;;;2.80;;
41623;SDS011;27319;50.306;18.926;2023-05-07T11:44:05;3.97;;;3.15;;
41623;SDS011;27319;50.306;18.926;2023-05-07T11:48:06;4.57;;;3.80;;
41623;SDS011;27319;50.306;18.926;2023-05-07T11:52:07;3.83;;;3.20;;
41623;SDS011;27319;50.306;18.926;2023-05-07T11:55:08;5.70;;;3.38;;
41623;SDS011;27319;50.306;18.926;2023-05-07T11:58:10;5.18;;;3.60;;
41623;SDS011;27319;50.306;18.926;2023-05-07T12:01:37;5.85;;;3.20;;
41623;SDS011;27319;50.306;18.926;2023-05-07T12:04:38;3.75;;;3.13;;
41623;SDS011;27319;50.306;18.926;2023-05-07T12:07:39;4.15;;;3.15;;
41623;SDS011;27319;50.306;18.926;2023-05-07T12:10:41;3.97;;;3.10;;
41623;SDS011;27319;50.306;18.926;2023-05-07T12:14:42;7.15;;;3.10;;
41623;SDS011;27319;50.306;18.926;2023-05-07T12:17:44;5.80;;;3.25;;
41623;SDS011;27319;50.306;18.926;2023-05-07T12:20:45;4.90;;;3.35;;
41623;SDS011;27319;50.306;18.926;2023-05-07T12:23:47;14.60;;;7.82;;
41623;SDS011;27319;50.306;18.926;2023-05-07T12:27:51;3.42;;;2.88;;
41623;SDS011;27319;50.306;18.926;2023-05-07T12:30:53;3.85;;;3.45;;
41623;SDS011;27319;50.306;18.926;2023-05-07T12:33:54;3.92;;;3.22;;
41623;SDS011;27319;50.306;18.926;2023-05-07T12:36:55;5.22;;;4.03;;
41623;SDS011;27319;50.306;18.926;2023-05-07T12:40:06;3.70;;;3.15;;
41623;SDS011;27319;50.306;18.926;2023-05-07T12:43:17;5.32;;;3.90;;
41623;SDS011;27319;50.306;18.926;2023-05-07T12:46:22;6.22;;;3.10;;
41623;SDS011;27319;50.306;18.926;2023-05-07T12:50:22;3.55;;;2.78;;
41623;SDS011;27319;50.306;18.926;2023-05-07T12:54:27;3.63;;;2.70;;
41623;SDS011;27319;50.306;18.926;2023-05-07T12:58:28;4.53;;;3.10;;
41623;SDS011;27319;50.306;18.926;2023-05-07T13:01:31;6.72;;;4.53;;
41623;SDS011;27319;50.306;18.926;2023-05-07T13:05:32;5.13;;;3.45;;
41623;SDS011;27319;50.306;18.926;2023-05-07T13:09:32;6.18;;;4.65;;
41623;SDS011;27319;50.306;18.926;2023-05-07T13:13:34;15.15;;;8.60;;
41623;SDS011;27319;50.306;18.926;2023-05-07T13:17:34;6.78;;;3.90;;
41623;SDS011;27319;50.306;18.926;2023-05-07T13:21:35;6.68;;;4.00;;
41623;SDS011;27319;50.306;18.926;2023-05-07T13:25:36;16.63;;;10.50;;
41623;SDS011;27319;50.306;18.926;2023-05-07T13:29:37;10.30;;;6.65;;
41623;SDS011;27319;50.306;18.926;2023-05-07T13:33:37;5.93;;;4.03;;
41623;SDS011;27319;50.306;18.926;2023-05-07T13:37:38;5.45;;;3.38;;
41623;SDS011;27319;50.306;18.926;2023-05-07T13:41:39;5.53;;;3.75;;
41623;SDS011;27319;50.306;18.926;2023-05-07T13:45:40;6.88;;;3.95;;
41623;SDS011;27319;50.306;18.926;2023-05-07T13:49:41;7.50;;;3.60;;
41623;SDS011;27319;50.306;18.926;2023-05-07T13:53:42;4.05;;;3.03;;
41623;SDS011;27319;50.306;18.926;2023-05-07T13:57:43;4.13;;;3.13;;
41623;SDS011;27319;50.306;18.926;2023-05-07T14:01:44;4.75;;;3.00;;
41623;SDS011;27319;50.306;18.926;2023-05-07T14:05:45;6.35;;;4.00;;
41623;SDS011;27319;50.306;18.926;2023-05-07T14:08:55;7.75;;;4.68;;
41623;SDS011;27319;50.306;18.926;2023-05-07T14:11:58;5.30;;;3.92;;
41623;SDS011;27319;50.306;18.926;2023-05-07T14:15:59;4.57;;;3.58;;
41623;SDS011;27319;50.306;18.926;2023-05-07T14:19:51;6.45;;;4.85;;
41623;SDS011;27319;50.306;18.926;2023-05-07T14:23:38;7.30;;;3.88;;
41623;SDS011;27319;50.306;18.926;2023-05-07T14:27:38;7.40;;;4.00;;
41623;SDS011;27319;50.306;18.926;2023-05-07T14:31:39;8.32;;;3.47;;
41623;SDS011;27319;50.306;18.926;2023-05-07T14:35:40;4.80;;;3.83;;
41623;SDS011;27319;50.306;18.926;2023-05-07T14:39:41;5.10;;;3.97;;
41623;SDS011;27319;50.306;18.926;2023-05-07T14:43:42;8.48;;;4.95;;
41623;SDS011;27319;50.306;18.926;2023-05-07T14:47:43;5.50;;;4.10;;
41623;SDS011;27319;50.306;18.926;2023-05-07T14:51:44;6.68;;;4.03;;
41623;SDS011;27319;50.306;18.926;2023-05-07T14:55:44;4.95;;;3.80;;
41623;SDS011;27319;50.306;18.926;2023-05-07T14:59:45;8.40;;;3.90;;
41623;SDS011;27319;50.306;18.926;2023-05-07T15:03:46;4.78;;;3.75;;
41623;SDS011;27319;50.306;18.926;2023-05-07T15:07:47;5.07;;;3.33;;
41623;SDS011;27319;50.306;18.926;2023-05-07T15:10:48;4.95;;;3.35;;
41623;SDS011;27319;50.306;18.926;2023-05-07T15:13:49;12.60;;;4.00;;
41623;SDS011;27319;50.306;18.926;2023-05-07T15:16:50;6.32;;;3.72;;
41623;SDS011;27319;50.306;18.926;2023-05-07T15:20:51;6.32;;;4.07;;
41623;SDS011;27319;50.306;18.926;2023-05-07T15:24:52;7.00;;;4.45;;
41623;SDS011;27319;50.306;18.926;2023-05-07T15:28:53;12.75;;;4.57;;
41623;SDS011;27319;50.306;18.926;2023-05-07T15:31:56;7.18;;;4.53;;
41623;SDS011;27319;50.306;18.926;2023-05-07T15:35:56;8.70;;;4.90;;
41623;SDS011;27319;50.306;18.926;2023-05-07T15:39:57;8.50;;;6.88;;
41623;SDS011;27319;50.306;18.926;2023-05-07T15:43:58;7.80;;;5.50;;
41623;SDS011;27319;50.306;18.926;2023-05-07T15:47:59;8.70;;;5.57;;
41623;SDS011;27319;50.306;18.926;2023-05-07T15:52:00;9.05;;;5.68;;
41623;SDS011;27319;50.306;18.926;2023-05-07T15:56:01;7.55;;;5.22;;
41623;SDS011;27319;50.306;18.926;2023-05-07T16:00:02;8.02;;;5.50;;
41623;SDS011;27319;50.306;18.926;2023-05-07T16:04:03;11.05;;;5.68;;
41623;SDS011;27319;50.306;18.926;2023-05-07T16:08:03;11.45;;;6.07;;
41623;SDS011;27319;50.306;18.926;2023-05-07T16:11:04;7.30;;;5.47;;
41623;SDS011;27319;50.306;18.926;2023-05-07T16:15:05;9.57;;;5.90;;
41623;SDS011;27319;50.306;18.926;2023-05-07T16:19:06;7.43;;;5.63;;
41623;SDS011;27319;50.306;18.926;2023-05-07T16:23:07;8.38;;;5.35;;
41623;SDS011;27319;50.306;18.926;2023-05-07T16:27:08;8.02;;;5.60;;
41623;SDS011;27319;50.306;18.926;2023-05-07T16:31:08;9.23;;;5.38;;
41623;SDS011;27319;50.306;18.926;2023-05-07T16:35:09;6.78;;;5.40;;
41623;SDS011;27319;50.306;18.926;2023-05-07T16:39:10;8.63;;;6.07;;
41623;SDS011;27319;50.306;18.926;2023-05-07T16:43:11;10.52;;;5.93;;
41623;SDS011;27319;50.306;18.926;2023-05-07T16:47:12;7.40;;;5.28;;
41623;SDS011;27319;50.306;18.926;2023-05-07T16:51:13;10.45;;;5.97;;
41623;SDS011;27319;50.306;18.926;2023-05-07T16:55:14;9.85;;;6.50;;
41623;SDS011;27319;50.306;18.926;2023-05-07T16:59:15;10.30;;;6.38;;
41623;SDS011;27319;50.306;18.926;2023-05-07T17:03:16;10.05;;;5.95;;
41623;SDS011;27319;50.306;18.926;2023-05-07T17:07:17;9.02;;;5.78;;
41623;SDS011;27319;50.306;18.926;2023-05-07T17:10:18;12.60;;;6.18;;
41623;SDS011;27319;50.306;18.926;2023-05-07T17:14:18;13.15;;;5.65;;
41623;SDS011;27319;50.306;18.926;2023-05-07T17:18:19;10.63;;;6.05;;
41623;SDS011;27319;50.306;18.926;2023-05-07T17:21:20;10.27;;;6.93;;
41623;SDS011;27319;50.306;18.926;2023-05-07T17:25:21;8.77;;;5.68;;
41623;SDS011;27319;50.306;18.926;2023-05-07T17:28:22;9.68;;;6.03;;
41623;SDS011;27319;50.306;18.926;2023-05-07T17:31:23;9.38;;;5.90;;
41623;SDS011;27319;50.306;18.926;2023-05-07T17:34:24;7.13;;;5.53;;
41623;SDS011;27319;50.306;18.926;2023-05-07T17:37:25;12.43;;;6.05;;
41623;SDS011;27319;50.306;18.926;2023-05-07T17:40:26;11.43;;;6.38;;
41623;SDS011;27319;50.306;18.926;2023-05-07T17:43:29;9.00;;;6.13;;
41623;SDS011;27319;50.306;18.926;2023-05-07T17:46:29;10.32;;;5.75;;
41623;SDS011;27319;50.306;18.926;2023-05-07T17:49:30;10.23;;;6.15;;
41623;SDS011;27319;50.306;18.926;2023-05-07T17:52:31;9.38;;;6.80;;
41623;SDS011;27319;50.306;18.926;2023-05-07T17:55:32;9.73;;;5.65;;
41623;SDS011;27319;50.306;18.926;2023-05-07T17:58:33;9.38;;;6.70;;
41623;SDS011;27319;50.306;18.926;2023-05-07T18:01:56;9.32;;;5.78;;
41623;SDS011;27319;50.306;18.926;2023-05-07T18:05:56;11.07;;;6.32;;
41623;SDS011;27319;50.306;18.926;2023-05-07T18:09:54;7.45;;;5.35;;
41623;SDS011;27319;50.306;18.926;2023-05-07T18:13:55;10.82;;;6.22;;
41623;SDS011;27319;50.306;18.926;2023-05-07T18:17:56;8.82;;;5.93;;
41623;SDS011;27319;50.306;18.926;2023-05-07T18:21:57;9.27;;;5.85;;
41623;SDS011;27319;50.306;18.926;2023-05-07T18:25:57;6.25;;;5.03;;
41623;SDS011;27319;50.306;18.926;2023-05-07T18:29:58;7.95;;;6.30;;
41623;SDS011;27319;50.306;18.926;2023-05-07T18:33:10;8.30;;;5.32;;
41623;SDS011;27319;50.306;18.926;2023-05-07T18:37:11;8.50;;;4.93;;
41623;SDS011;27319;50.306;18.926;2023-05-07T18:41:12;9.02;;;5.68;;
41623;SDS011;27319;50.306;18.926;2023-05-07T18:45:13;8.98;;;6.13;;
41623;SDS011;27319;50.306;18.926;2023-05-07T18:49:13;8.55;;;5.40;;
41623;SDS011;27319;50.306;18.926;2023-05-07T18:53:14;8.82;;;5.68;;
41623;SDS011;27319;50.306;18.926;2023-05-07T18:57:15;8.57;;;6.13;;
41623;SDS011;27319;50.306;18.926;2023-05-07T19:01:16;9.63;;;6.47;;
41623;SDS011;27319;50.306;18.926;2023-05-07T19:05:17;8.43;;;5.75;;
41623;SDS011;27319;50.306;18.926;2023-05-07T19:08:33;8.10;;;5.55;;
41623;SDS011;27319;50.306;18.926;2023-05-07T19:11:35;11.00;;;5.95;;
41623;SDS011;27319;50.306;18.926;2023-05-07T19:15:35;6.88;;;5.80;;
41623;SDS011;27319;50.306;18.926;2023-05-07T19:19:37;7.55;;;5.25;;
41623;SDS011;27319;50.306;18.926;2023-05-07T19:23:38;10.90;;;5.43;;
41623;SDS011;27319;50.306;18.926;2023-05-07T19:26:41;9.68;;;5.80;;
41623;SDS011;27319;50.306;18.926;2023-05-07T19:29:42;11.45;;;6.03;;
41623;SDS011;27319;50.306;18.926;2023-05-07T19:32:43;13.20;;;6.00;;
41623;SDS011;27319;50.306;18.926;2023-05-07T19:35:44;9.80;;;5.68;;
41623;SDS011;27319;50.306;18.926;2023-05-07T19:39:45;9.45;;;6.18;;
41623;SDS011;27319;50.306;18.926;2023-05-07T19:43:46;8.57;;;5.25;;
41623;SDS011;27319;50.306;18.926;2023-05-07T19:47:47;8.70;;;4.85;;
41623;SDS011;27319;50.306;18.926;2023-05-07T19:51:47;8.85;;;5.18;;
41623;SDS011;27319;50.306;18.926;2023-05-07T19:55:48;10.05;;;5.97;;
41623;SDS011;27319;50.306;18.926;2023-05-07T19:59:06;8.90;;;5.57;;
41623;SDS011;27319;50.306;18.926;2023-05-07T20:03:07;9.43;;;5.18;;
41623;SDS011;27319;50.306;18.926;2023-05-07T20:07:08;10.35;;;5.63;;
41623;SDS011;27319;50.306;18.926;2023-05-07T20:10:09;8.25;;;5.20;;
41623;SDS011;27319;50.306;18.926;2023-05-07T20:13:10;8.55;;;4.82;;
41623;SDS011;27319;50.306;18.926;2023-05-07T20:17:11;7.75;;;5.00;;
41623;SDS011;27319;50.306;18.926;2023-05-07T20:21:12;7.82;;;4.78;;
41623;SDS011;27319;50.306;18.926;2023-05-07T20:25:13;9.20;;;5.25;;
41623;SDS011;27319;50.306;18.926;2023-05-07T20:29:16;8.10;;;5.22;;
41623;SDS011;27319;50.306;18.926;2023-05-07T20:33:17;7.03;;;5.00;;
41623;SDS011;27319;50.306;18.926;2023-05-07T20:36:53;6.38;;;4.20;;
41623;SDS011;27319;50.306;18.926;2023-05-07T20:40:54;6.97;;;4.38;;
41623;SDS011;27319;50.306;18.926;2023-05-07T20:44:55;11.48;;;4.90;;
41623;SDS011;27319;50.306;18.926;2023-05-07T20:48:56;6.65;;;5.13;;
41623;SDS011;27319;50.306;18.926;2023-05-07T20:52:56;6.88;;;4.80;;
41623;SDS011;27319;50.306;18.926;2023-05-07T20:56:57;7.18;;;5.07;;
41623;SDS011;27319;50.306;18.926;2023-05-07T21:00:58;6.97;;;4.30;;
41623;SDS011;27319;50.306;18.926;2023-05-07T21:04:59;6.50;;;4.40;;
41623;SDS011;27319;50.306;18.926;2023-05-07T21:09:00;6.45;;;4.30;;
41623;SDS011;27319;50.306;18.926;2023-05-07T21:13:01;8.48;;;5.53;;
41623;SDS011;27319;50.306;18.926;2023-05-07T21:16:04;7.32;;;4.85;;
41623;SDS011;27319;50.306;18.926;2023-05-07T21:20:05;6.13;;;4.00;;
41623;SDS011;27319;50.306;18.926;2023-05-07T21:23:06;6.72;;;4.50;;
41623;SDS011;27319;50.306;18.926;2023-05-07T21:27:07;8.48;;;4.63;;